createdAt,value
2022-11-11T00:01:15.549Z,100821.75
2022-11-11T00:04:00.930Z,100812.91
2022-11-11T00:06:47.663Z,100814.53
2022-11-11T00:09:33.285Z,100814.53
2022-11-11T00:12:19.191Z,100815.34
2022-11-11T00:15:05.483Z,100817.31
2022-11-11T00:18:09.259Z,100808.09
2022-11-11T00:21:12.952Z,100814.69
2022-11-11T00:24:16.961Z,100812.72
2022-11-11T00:27:03.181Z,100811.69
2022-11-11T00:29:48.401Z,100815.44
2022-11-11T00:32:34.067Z,100815.66
2022-11-11T00:35:38.095Z,100807.19
2022-11-11T00:38:42.387Z,100811.88
2022-11-11T00:41:27.832Z,100805.31
2022-11-11T00:44:13.539Z,100806.94
2022-11-11T00:47:17.495Z,100801.03
2022-11-11T00:50:26.500Z,100801.34
2022-11-11T00:53:14.486Z,100803.19
2022-11-11T00:56:00.132Z,100801.19
2022-11-11T00:58:45.603Z,100796.59
2022-11-11T01:01:31.241Z,100796.13
2022-11-11T01:04:17.145Z,100797.44
2022-11-11T01:07:02.690Z,100792.19
2022-11-11T01:09:48.108Z,100791.94
2022-11-11T01:12:33.534Z,100789.63
2022-11-11T01:15:19.113Z,100789.22
2022-11-11T01:18:05.201Z,100793.78
2022-11-11T01:21:05.759Z,100791.84
2022-11-11T01:23:53.430Z,100788.56
2022-11-11T01:26:38.793Z,100792.22
2022-11-11T01:29:24.171Z,100790.38
2022-11-11T01:32:09.590Z,100787.13
2022-11-11T01:34:54.961Z,100787.25
2022-11-11T01:37:40.252Z,100792.22
2022-11-11T01:40:25.882Z,100795.66
2022-11-11T01:43:11.377Z,100787.84
2022-11-11T01:46:03.720Z,100783.41
2022-11-11T01:49:12.496Z,100789.38
2022-11-11T01:52:22.960Z,100782.56
2022-11-11T01:55:15.451Z,100777.88
2022-11-11T01:58:06.298Z,100773.81
2022-11-11T02:00:51.744Z,100783.09
2022-11-11T02:03:40.859Z,100781.00
2022-11-11T02:06:28.586Z,100776.38
2022-11-11T02:09:14.325Z,100785.66
2022-11-11T02:12:24.337Z,100783.59
2022-11-11T02:15:10.125Z,100769.53
2022-11-11T02:17:55.327Z,100774.56
2022-11-11T02:20:45.183Z,100776.00
2022-11-11T02:23:33.765Z,100780.50
2022-11-11T02:26:19.896Z,100787.34
2022-11-11T02:29:12.694Z,100783.13
2022-11-11T02:31:58.521Z,100788.09
2022-11-11T02:34:44.233Z,100773.06
2022-11-11T02:37:29.785Z,100782.78
2022-11-11T02:40:23.660Z,100780.03
2022-11-11T02:43:09.081Z,100797.50
2022-11-11T02:45:54.730Z,100806.75
2022-11-11T02:48:40.575Z,100793.38
2022-11-11T02:51:25.879Z,100800.72
2022-11-11T02:54:11.564Z,100789.19
2022-11-11T02:57:09.425Z,100802.19
2022-11-11T02:59:57.866Z,100791.31
2022-11-11T03:02:43.577Z,100792.09
2022-11-11T03:05:29.016Z,100785.81
2022-11-11T03:08:14.240Z,100784.75
2022-11-11T03:10:59.344Z,100780.91
2022-11-11T03:13:44.982Z,100781.28
2022-11-11T03:16:49.311Z,100778.56
2022-11-11T03:19:35.545Z,100783.13
2022-11-11T03:25:38.690Z,100791.03
2022-11-11T03:28:27.062Z,100797.34
2022-11-11T03:31:12.333Z,100791.53
2022-11-11T03:34:17.772Z,100794.53
2022-11-11T03:37:25.728Z,100794.34
2022-11-11T03:40:11.538Z,100797.63
2022-11-11T03:43:03.873Z,100788.06
2022-11-11T03:45:51.311Z,100786.84
2022-11-11T03:48:37.045Z,100788.22
2022-11-11T03:51:22.374Z,100795.19
2022-11-11T03:54:07.753Z,100789.72
2022-11-11T03:57:13.451Z,100797.00
2022-11-11T03:59:58.693Z,100799.22
2022-11-11T04:03:02.226Z,100798.38
2022-11-11T04:06:05.734Z,100796.78
2022-11-11T04:09:09.932Z,100777.66
2022-11-11T04:11:55.011Z,100800.28
2022-11-11T04:14:58.858Z,100793.66
2022-11-11T04:17:44.788Z,100793.03
2022-11-11T04:20:48.824Z,100795.56
2022-11-11T04:23:33.903Z,100798.06
2022-11-11T04:26:19.530Z,100805.63
2022-11-11T04:29:23.858Z,100798.63
2022-11-11T04:32:35.654Z,100811.31
2022-11-11T04:35:21.242Z,100815.13
2022-11-11T04:38:25.082Z,100821.97
2022-11-11T04:41:11.302Z,100820.19
2022-11-11T04:44:15.206Z,100816.91
2022-11-11T04:47:00.467Z,100808.59
2022-11-11T04:49:46.260Z,100812.75
2022-11-11T04:52:32.095Z,100820.72
2022-11-11T04:55:36.846Z,100812.72
2022-11-11T04:58:25.155Z,100829.38
2022-11-11T05:01:10.854Z,100824.81
2022-11-11T05:03:56.173Z,100834.03
2022-11-11T05:07:00.225Z,100843.41
2022-11-11T05:09:45.731Z,100839.31
2022-11-11T05:12:32.581Z,100855.31
2022-11-11T05:15:36.339Z,100854.56
2022-11-11T05:18:40.472Z,100854.53
2022-11-11T05:21:28.255Z,100858.38
2022-11-11T05:24:32.479Z,100868.19
2022-11-11T05:27:18.227Z,100869.44
2022-11-11T05:30:06.293Z,100871.91
2022-11-11T05:32:52.180Z,100874.09
2022-11-11T05:35:37.502Z,100881.88
2022-11-11T05:38:23.061Z,100880.03
2022-11-11T05:41:09.720Z,100882.97
2022-11-11T05:43:54.910Z,100880.72
2022-11-11T05:46:40.335Z,100879.53
2022-11-11T05:49:26.228Z,100880.75
2022-11-11T05:52:13.830Z,100869.72
2022-11-11T05:54:59.460Z,100889.28
2022-11-11T05:57:45.184Z,100890.53
2022-11-11T06:00:30.334Z,100898.44
2022-11-11T06:03:15.893Z,100895.06
2022-11-11T06:06:01.315Z,100884.38
2022-11-11T06:08:46.781Z,100908.56
2022-11-11T06:11:33.177Z,100909.19
2022-11-11T06:14:18.938Z,100900.38
2022-11-11T06:17:04.456Z,100916.94
2022-11-11T06:19:49.757Z,100911.41
2022-11-11T06:22:56.032Z,100920.44
2022-11-11T06:26:00.038Z,100925.97
2022-11-11T06:28:47.292Z,100914.28
2022-11-11T06:31:32.801Z,100921.25
2022-11-11T06:34:18.235Z,100929.38
2022-11-11T06:37:03.611Z,100929.34
2022-11-11T06:39:48.974Z,100930.84
2022-11-11T06:42:38.195Z,100932.25
2022-11-11T06:45:28.439Z,100934.91
2022-11-11T06:48:13.786Z,100939.41
2022-11-11T06:51:05.093Z,100940.13
2022-11-11T06:53:50.506Z,100944.34
2022-11-11T06:56:35.741Z,100933.09
2022-11-11T06:59:21.037Z,100943.69
2022-11-11T07:02:06.743Z,100934.56
2022-11-11T07:04:52.104Z,100930.69
2022-11-11T07:07:37.337Z,100938.06
2022-11-11T07:10:22.897Z,100920.50
2022-11-11T07:13:08.641Z,100939.66
2022-11-11T07:15:53.872Z,100949.06
2022-11-11T07:18:39.233Z,100944.13
2022-11-11T07:21:24.441Z,100948.06
2022-11-11T07:24:09.979Z,100942.00
2022-11-11T07:26:55.386Z,100935.09
2022-11-11T07:29:40.826Z,100947.22
2022-11-11T07:32:26.185Z,100939.25
2022-11-11T07:35:11.638Z,100942.34
2022-11-11T07:37:57.057Z,100946.25
2022-11-11T07:40:42.373Z,100939.59
2022-11-11T07:43:27.677Z,100937.00
2022-11-11T07:46:13.035Z,100947.03
2022-11-11T07:48:58.509Z,100943.63
2022-11-11T07:51:43.883Z,100934.22
2022-11-11T07:54:29.106Z,100932.44
2022-11-11T07:57:14.764Z,100928.28
2022-11-11T07:59:59.970Z,100938.59
2022-11-11T08:02:49.354Z,100937.56
2022-11-11T08:05:34.731Z,100923.66
2022-11-11T08:08:25.706Z,100922.03
2022-11-11T08:11:12.189Z,100917.06
2022-11-11T08:13:57.790Z,100919.97
2022-11-11T08:16:43.068Z,100932.97
2022-11-11T08:19:28.474Z,100934.41
2022-11-11T08:22:14.088Z,100940.19
2022-11-11T08:25:04.406Z,100934.22
2022-11-11T08:27:56.694Z,100942.88
2022-11-11T08:30:42.450Z,100944.16
2022-11-11T08:33:44.024Z,100948.41
2022-11-11T08:36:29.834Z,100940.44
2022-11-11T08:39:15.267Z,100945.00
2022-11-11T08:42:00.685Z,100944.59
2022-11-11T08:44:47.125Z,100934.69
2022-11-11T08:47:32.552Z,100934.50
2022-11-11T08:50:18.597Z,100936.50
2022-11-11T08:53:04.154Z,100946.81
2022-11-11T08:55:49.606Z,100936.38
2022-11-11T08:58:35.378Z,100940.00
2022-11-11T09:01:20.884Z,100941.63
2022-11-11T09:04:30.079Z,100937.78
2022-11-11T09:07:12.527Z,100929.50
2022-11-11T09:09:57.732Z,100930.22
2022-11-11T09:12:43.077Z,100923.09
2022-11-11T09:15:29.593Z,100928.28
2022-11-11T09:18:15.073Z,100917.13
2022-11-11T09:21:00.901Z,100924.25
2022-11-11T09:23:46.018Z,100912.66
2022-11-11T09:26:31.424Z,100917.69
2022-11-11T09:29:17.521Z,100915.31
2022-11-11T09:32:03.057Z,100920.88
2022-11-11T09:34:48.305Z,100919.59
2022-11-11T09:37:33.750Z,100915.34
2022-11-11T09:40:21.781Z,100916.53
2022-11-11T09:43:33.132Z,100914.91
2022-11-11T09:46:44.562Z,100919.16
2022-11-11T09:49:42.400Z,100922.13
2022-11-11T09:52:37.392Z,100918.63
2022-11-11T09:55:38.670Z,100912.16
2022-11-11T09:58:43.746Z,100914.31
2022-11-11T10:01:36.753Z,100917.47
2022-11-11T10:04:24.840Z,100922.28
2022-11-11T10:07:18.408Z,100909.84
2022-11-11T10:10:13.557Z,100905.13
2022-11-11T10:12:59.913Z,100899.69
2022-11-11T10:16:23.923Z,100898.94
2022-11-11T10:19:15.650Z,100897.84
2022-11-11T10:22:12.757Z,100890.97
2022-11-11T10:25:21.073Z,100898.38
2022-11-11T10:28:08.146Z,100898.97
2022-11-11T10:30:55.657Z,100894.19
2022-11-11T10:33:54.830Z,100887.78
2022-11-11T10:36:46.405Z,100894.88
2022-11-11T10:40:00.903Z,100885.53
2022-11-11T10:42:46.037Z,100879.69
2022-11-11T10:46:02.712Z,100879.59
2022-11-11T10:48:57.392Z,100881.97
2022-11-11T10:51:51.769Z,100876.94
2022-11-11T10:54:55.264Z,100877.28
2022-11-11T10:58:01.937Z,100879.19
2022-11-11T11:00:50.510Z,100876.28
2022-11-11T11:03:53.805Z,100867.88
2022-11-11T11:06:44.352Z,100875.97
2022-11-11T11:09:45.841Z,100872.88
2022-11-11T11:12:47.169Z,100874.84
2022-11-11T11:15:35.862Z,100865.50
2022-11-11T11:18:21.423Z,100873.91
2022-11-11T11:21:08.643Z,100863.47
2022-11-11T11:23:53.924Z,100862.34
2022-11-11T11:26:48.614Z,100864.56
2022-11-11T11:29:43.122Z,100862.00
2022-11-11T11:32:30.927Z,100869.66
2022-11-11T11:35:37.784Z,100860.28
2022-11-11T11:38:40.927Z,100871.38
2022-11-11T11:41:50.286Z,100871.59
2022-11-11T11:44:40.294Z,100871.72
2022-11-11T11:47:34.819Z,100863.72
2022-11-11T11:50:38.818Z,100866.91
2022-11-11T11:53:57.163Z,100872.44
2022-11-11T11:56:45.875Z,100879.34
2022-11-11T11:59:49.724Z,100876.38
2022-11-11T12:02:58.385Z,100883.53
2022-11-11T12:05:50.682Z,100883.84
2022-11-11T12:09:00.873Z,100885.34
2022-11-11T12:11:46.274Z,100884.91
2022-11-11T12:15:22.752Z,100891.41
2022-11-11T12:18:33.582Z,100886.00
2022-11-11T12:21:24.558Z,100885.34
2022-11-11T12:24:10.033Z,100893.31
2022-11-11T12:27:14.184Z,100879.19
2022-11-11T12:30:14.305Z,100879.69
2022-11-11T12:33:06.328Z,100887.56
2022-11-11T12:36:17.907Z,100889.38
2022-11-11T12:39:12.514Z,100889.81
2022-11-11T12:42:26.782Z,100883.84
2022-11-11T12:45:22.068Z,100889.16
2022-11-11T12:48:32.749Z,100887.47
2022-11-11T12:51:36.748Z,100889.16
2022-11-11T12:54:43.514Z,100897.66
2022-11-11T12:57:34.713Z,100889.47
2022-11-11T13:00:22.214Z,100900.50
2022-11-11T13:04:01.673Z,100900.44
2022-11-11T13:07:04.347Z,100896.31
2022-11-11T13:09:56.434Z,100895.34
2022-11-11T13:12:55.481Z,100895.66
2022-11-11T13:15:41.099Z,100904.72
2022-11-11T13:19:12.101Z,100898.63
2022-11-11T13:22:13.088Z,100908.69
2022-11-11T13:25:04.238Z,100901.69
2022-11-11T13:27:55.400Z,100898.50
2022-11-11T13:30:53.010Z,100904.97
2022-11-11T13:33:49.174Z,100902.81
2022-11-11T13:36:41.203Z,100909.22
2022-11-11T13:39:34.572Z,100919.28
2022-11-11T13:42:26.556Z,100914.47
2022-11-11T13:45:26.870Z,100911.47
2022-11-11T13:48:31.421Z,100926.25
2022-11-11T13:51:19.928Z,100919.25
2022-11-11T13:54:20.317Z,100911.19
2022-11-11T13:57:15.529Z,100922.22
2022-11-11T14:00:24.667Z,100912.81
2022-11-11T14:03:22.880Z,100914.59
2022-11-11T14:06:14.584Z,100916.81
2022-11-11T14:09:00.302Z,100910.47
2022-11-11T14:11:45.725Z,100912.41
2022-11-11T14:14:37.231Z,100911.69
2022-11-11T14:17:23.214Z,100922.13
2022-11-11T14:20:42.074Z,100934.84
2022-11-11T14:23:30.685Z,100936.09
2022-11-11T14:26:24.382Z,100935.78
2022-11-11T14:29:19.664Z,100943.47
2022-11-11T14:32:14.202Z,100942.72
2022-11-11T14:35:19.994Z,100948.41
2022-11-11T14:38:28.359Z,100942.97
2022-11-11T14:41:53.537Z,100937.78
2022-11-11T14:44:41.154Z,100924.72
2022-11-11T14:47:42.119Z,100923.41
2022-11-11T14:50:33.324Z,100912.22
2022-11-11T14:53:21.002Z,100926.97
2022-11-11T14:56:16.592Z,100936.28
2022-11-11T14:59:07.528Z,100938.75
2022-11-11T15:01:55.239Z,100936.97
2022-11-11T15:04:41.418Z,100930.78
2022-11-11T15:08:05.566Z,100933.63
2022-11-11T15:11:06.342Z,100944.53
2022-11-11T15:14:19.073Z,100941.81
2022-11-11T15:17:35.888Z,100938.16
2022-11-11T15:20:52.906Z,100935.38
2022-11-11T15:23:49.398Z,100936.53
2022-11-11T15:27:00.925Z,100937.38
2022-11-11T15:30:07.864Z,100929.03
2022-11-11T15:33:12.159Z,100936.47
2022-11-11T15:36:16.310Z,100941.06
2022-11-11T15:39:13.071Z,100941.94
2022-11-11T15:41:58.832Z,100949.72
2022-11-11T15:44:44.678Z,100956.19
2022-11-11T15:47:35.787Z,100958.94
2022-11-11T15:50:23.948Z,100965.88
2022-11-11T15:53:12.418Z,100977.41
2022-11-11T15:56:00.650Z,100983.78
2022-11-11T15:58:46.125Z,100988.69
2022-11-11T16:01:31.919Z,100982.44
2022-11-11T16:04:54.073Z,100983.38
2022-11-11T16:07:32.117Z,100981.53
2022-11-11T16:10:29.777Z,100977.97
2022-11-11T16:13:14.977Z,100984.31
2022-11-11T16:16:09.324Z,100982.13
2022-11-11T16:19:03.581Z,100988.56
2022-11-11T16:21:57.927Z,100992.59
2022-11-11T16:24:45.873Z,100993.03
2022-11-11T16:27:33.422Z,100997.78
2022-11-11T16:30:24.793Z,101003.75
2022-11-11T16:33:40.735Z,101003.94
2022-11-11T16:36:26.666Z,101007.63
2022-11-11T16:39:19.338Z,101015.41
2022-11-11T16:42:08.207Z,101011.25
2022-11-11T16:45:01.295Z,101014.38
2022-11-11T16:47:49.247Z,101023.72
2022-11-11T16:50:53.219Z,101022.44
2022-11-11T16:53:46.833Z,101027.81
2022-11-11T16:56:33.940Z,101023.34
2022-11-11T16:59:34.326Z,101017.03
2022-11-11T17:02:22.467Z,101026.22
2022-11-11T17:05:08.630Z,101025.53
2022-11-11T17:07:54.493Z,101025.34
2022-11-11T17:10:40.717Z,101029.72
2022-11-11T17:13:27.376Z,101028.09
2022-11-11T17:16:14.110Z,101034.25
2022-11-11T17:19:03.991Z,101027.44
2022-11-11T17:21:49.306Z,101030.09
2022-11-11T17:24:34.762Z,101033.69
2022-11-11T17:27:20.006Z,101033.50
2022-11-11T17:30:06.368Z,101033.41
2022-11-11T17:32:51.839Z,101028.03
2022-11-11T17:35:37.293Z,101026.22
2022-11-11T17:38:22.621Z,101025.94
2022-11-11T17:41:08.175Z,101023.28
2022-11-11T17:43:53.888Z,101031.53
2022-11-11T17:46:39.209Z,101030.84
2022-11-11T17:49:50.021Z,101036.34
2022-11-11T17:52:30.404Z,101037.41
2022-11-11T17:55:16.026Z,101040.41
2022-11-11T17:58:01.748Z,101037.47
2022-11-11T18:00:47.023Z,101033.31
2022-11-11T18:03:32.394Z,101034.75
2022-11-11T18:06:17.892Z,101036.63
2022-11-11T18:09:03.206Z,101039.78
2022-11-11T18:11:48.590Z,101037.31
2022-11-11T18:14:33.929Z,101044.03
2022-11-11T18:17:19.594Z,101041.47
2022-11-11T18:20:05.218Z,101046.00
2022-11-11T18:22:56.864Z,101049.16
2022-11-11T18:25:42.886Z,101045.63
2022-11-11T18:28:33.514Z,101054.63
2022-11-11T18:31:18.902Z,101049.03
2022-11-11T18:34:04.518Z,101059.06
2022-11-11T18:36:52.412Z,101059.44
2022-11-11T18:39:37.854Z,101059.25
2022-11-11T18:42:23.160Z,101063.25
2022-11-11T18:45:08.992Z,101063.81
2022-11-11T18:47:54.453Z,101059.44
2022-11-11T18:50:39.781Z,101066.38
2022-11-11T18:53:25.758Z,101061.16
2022-11-11T18:56:20.173Z,101060.66
2022-11-11T18:59:05.634Z,101067.38
2022-11-11T19:01:54.747Z,101069.41
2022-11-11T19:04:41.031Z,101072.63
2022-11-11T19:07:26.460Z,101064.50
2022-11-11T19:10:11.861Z,101067.88
2022-11-11T19:12:56.874Z,101076.47
2022-11-11T19:15:42.102Z,101078.09
2022-11-11T19:18:27.464Z,101084.53
2022-11-11T19:21:17.399Z,101080.91
2022-11-11T19:24:03.715Z,101076.59
2022-11-11T19:26:51.062Z,101085.78
2022-11-11T19:29:36.225Z,101088.53
2022-11-11T19:32:21.585Z,101096.56
2022-11-11T19:35:07.400Z,101096.31
2022-11-11T19:37:52.511Z,101094.78
2022-11-11T19:40:38.009Z,101088.69
2022-11-11T19:43:24.869Z,101089.09
2022-11-11T19:46:15.731Z,101089.94
2022-11-11T19:49:00.957Z,101092.97
2022-11-11T19:51:46.294Z,101104.50
2022-11-11T19:54:31.686Z,101106.41
2022-11-11T19:57:17.066Z,101095.47
2022-11-11T20:00:02.476Z,101095.53
2022-11-11T20:02:47.789Z,101102.91
2022-11-11T20:05:37.376Z,101111.22
2022-11-11T20:08:22.536Z,101106.34
2022-11-11T20:11:09.384Z,101104.28
2022-11-11T20:13:56.011Z,101102.06
2022-11-11T20:16:41.274Z,101105.91
2022-11-11T20:19:26.483Z,101087.88
2022-11-11T20:22:12.082Z,101099.34
2022-11-11T20:24:57.647Z,101097.09
2022-11-11T20:27:43.233Z,101095.97
2022-11-11T20:30:28.601Z,101097.59
2022-11-11T20:33:14.346Z,101088.69
2022-11-11T20:36:04.530Z,101089.38
2022-11-11T20:38:50.107Z,101084.38
2022-11-11T20:41:36.211Z,101084.94
2022-11-11T20:44:21.862Z,101079.78
2022-11-11T20:47:08.562Z,101093.84
2022-11-11T20:49:54.209Z,101080.00
2022-11-11T20:52:39.522Z,101093.38
2022-11-11T20:55:24.846Z,101093.09
2022-11-11T20:58:10.223Z,101089.88
2022-11-11T21:01:01.633Z,101093.72
2022-11-11T21:03:47.021Z,101106.31
2022-11-11T21:06:32.636Z,101109.22
2022-11-11T21:09:18.107Z,101104.53
2022-11-11T21:12:03.916Z,101097.13
2022-11-11T21:14:49.247Z,101112.16
2022-11-11T21:17:34.798Z,101098.66
2022-11-11T21:20:20.570Z,101098.38
2022-11-11T21:23:05.829Z,101092.50
2022-11-11T21:25:51.161Z,101099.28
2022-11-11T21:28:37.958Z,101089.91
2022-11-11T21:31:26.741Z,101100.75
2022-11-11T21:34:13.003Z,101109.31
2022-11-11T21:36:58.692Z,101097.00
2022-11-11T21:39:43.997Z,101099.22
2022-11-11T21:42:29.414Z,101091.88
2022-11-11T21:45:14.805Z,101090.84
2022-11-11T21:48:00.221Z,101108.13
2022-11-11T21:50:45.610Z,101093.25
2022-11-11T21:53:31.099Z,101095.72
2022-11-11T21:56:16.687Z,101106.59
2022-11-11T21:59:04.701Z,101097.81
2022-11-11T22:01:50.056Z,101111.00
2022-11-11T22:04:35.484Z,101092.72
2022-11-11T22:07:21.530Z,101096.97
2022-11-11T22:10:07.363Z,101096.97
2022-11-11T22:12:52.489Z,101095.44
2022-11-11T22:15:38.584Z,101093.56
2022-11-11T22:18:23.986Z,101088.84
2022-11-11T22:21:12.430Z,101084.34
2022-11-11T22:24:00.372Z,101086.88
2022-11-11T22:26:45.887Z,101090.47
2022-11-11T22:29:31.553Z,101094.56
2022-11-11T22:32:16.856Z,101092.28
2022-11-11T22:35:02.200Z,101085.81
2022-11-11T22:37:47.481Z,101081.63
2022-11-11T22:40:32.872Z,101084.06
2022-11-11T22:43:38.115Z,101074.00
2022-11-11T22:46:24.945Z,101072.56
2022-11-11T22:49:12.241Z,101079.56
2022-11-11T22:51:57.335Z,101077.09
2022-11-11T22:54:42.726Z,101080.66
2022-11-11T22:57:30.826Z,101083.75
2022-11-11T23:00:16.626Z,101074.16
2022-11-11T23:03:02.654Z,101081.09
2022-11-11T23:05:47.769Z,101075.59
2022-11-11T23:08:33.165Z,101080.91
2022-11-11T23:11:24.099Z,101080.69
2022-11-11T23:14:15.767Z,101074.00
2022-11-11T23:17:00.761Z,101074.16
2022-11-11T23:19:45.886Z,101077.88
2022-11-11T23:22:31.426Z,101063.84
2022-11-11T23:25:16.780Z,101073.16
2022-11-11T23:28:02.060Z,101072.97
2022-11-11T23:30:48.005Z,101076.50
2022-11-11T23:33:35.068Z,101074.19
2022-11-11T23:36:23.229Z,101074.69
2022-11-11T23:39:08.551Z,101067.78
2022-11-11T23:41:53.847Z,101078.88
2022-11-11T23:44:39.054Z,101073.41
2022-11-11T23:47:24.494Z,101075.69
2022-11-11T23:50:10.055Z,101077.59
2022-11-11T23:52:55.164Z,101075.31
2022-11-11T23:55:40.740Z,101074.88
2022-11-11T23:58:26.730Z,101062.59
